< < Back
Terminal Aerodrome Forecast


Current Version              Previous Versions:   1  2  3  4  5  6  7  8  9  

Terminal Aerodrome Forecast

079
FTUS44 KHUN 221120
TAFHSV
TAF
KHSV 221120Z 2212/2312 36005KT P6SM FEW250
     FM221400 05010KT P6SM FEW250
     FM222100 05006KT P6SM FEW200=

Latest METAR

433
SAUS80 KWBC 231600
MTRHSV
METAR KHSV 231553Z VRB04KT 10SM FEW250 26/13 A3034 RMK AO2 SLP268
T02560133


USA.gov is the U.S. government's official web portal to all federal, state and local government web resources and services.